createdAt,value
2019-04-01T00:00:01.431Z,70.73
2019-04-01T00:02:29.866Z,52.33
2019-04-01T00:04:58.304Z,58.03
2019-04-01T00:07:46.066Z,52.33
2019-04-01T00:10:33.866Z,56.43
2019-04-01T00:13:21.645Z,58.60
2019-04-01T00:16:09.419Z,57.97
2019-04-01T00:19:03.274Z,61.63
2019-04-01T00:21:27.399Z,63.37
2019-04-01T00:24:15.177Z,58.70
2019-04-01T00:26:55.809Z,58.93
2019-04-01T00:29:36.537Z,56.93
2019-04-01T00:32:17.474Z,63.20
2019-04-01T00:34:58.486Z,60.97
2019-04-01T00:37:39.353Z,48.97
2019-04-01T00:40:20.273Z,52.37
2019-04-01T00:43:20.085Z,58.60
2019-04-01T00:46:00.636Z,57.67
2019-04-01T00:48:41.116Z,66.27
2019-04-01T00:51:22.025Z,59.27
2019-04-01T00:54:02.986Z,56.33
2019-04-01T00:56:43.950Z,56.47
2019-04-01T00:59:25.125Z,59.00
2019-04-01T01:02:06.305Z,55.33
2019-04-01T01:04:34.743Z,58.60
2019-04-01T01:07:22.515Z,51.93
2019-04-01T01:10:10.430Z,52.37
2019-04-01T01:12:58.232Z,53.97
2019-04-01T01:15:45.987Z,54.23
2019-04-01T01:18:33.761Z,52.03
2019-04-01T01:21:21.635Z,50.83
2019-04-01T01:24:09.408Z,55.93
2019-04-01T01:26:50.358Z,51.63
2019-04-01T01:29:31.423Z,60.97
2019-04-01T01:32:12.365Z,51.07
2019-04-01T01:34:40.811Z,54.33
2019-04-01T01:37:09.322Z,47.87
2019-04-01T01:39:57.167Z,52.57
2019-04-01T01:42:44.937Z,50.70
2019-04-01T01:45:32.724Z,50.97
2019-04-01T01:48:20.487Z,51.30
2019-04-01T01:51:08.269Z,46.17
2019-04-01T01:53:56.094Z,49.23
2019-04-01T01:56:43.870Z,52.10
2019-04-01T01:59:31.632Z,50.33
2019-04-01T02:02:19.441Z,51.97
2019-04-01T02:05:07.291Z,51.37
2019-04-01T02:07:55.067Z,53.50
2019-04-01T02:10:42.856Z,54.53
2019-04-01T02:13:30.639Z,48.33
2019-04-01T02:16:18.414Z,49.20
2019-04-01T02:19:06.194Z,49.27
2019-04-01T02:21:53.981Z,45.80
2019-04-01T02:24:41.752Z,47.33
2019-04-01T02:27:22.068Z,44.77
2019-04-01T02:30:03.009Z,45.30
2019-04-01T02:32:43.946Z,47.60
2019-04-01T02:35:24.942Z,45.60
2019-04-01T02:37:53.384Z,42.83
2019-04-01T02:40:41.196Z,41.30
2019-04-01T02:43:28.961Z,47.93
2019-04-01T02:46:16.732Z,44.40
2019-04-01T02:49:04.517Z,53.30
2019-04-01T02:51:52.293Z,45.47
2019-04-01T02:54:40.063Z,44.50
2019-04-01T02:57:27.836Z,49.37
2019-04-01T03:00:15.712Z,42.63
2019-04-01T03:03:03.556Z,45.03
2019-04-01T03:05:51.419Z,47.17
2019-04-01T03:08:39.268Z,47.50
2019-04-01T03:11:27.089Z,41.37
2019-04-01T03:14:14.905Z,45.07
2019-04-01T03:17:02.689Z,48.00
2019-04-01T03:19:50.536Z,44.27
2019-04-01T03:22:38.336Z,39.83
2019-04-01T03:25:26.111Z,41.27
2019-04-01T03:28:13.882Z,39.70
2019-04-01T03:31:01.664Z,40.63
2019-04-01T03:33:49.504Z,37.60
2019-04-01T03:36:37.296Z,42.77
2019-04-01T03:39:25.073Z,43.30
2019-04-01T03:42:12.951Z,44.53
2019-04-01T03:44:41.448Z,34.67
2019-04-01T03:47:29.236Z,33.80
2019-04-01T03:50:17.033Z,39.83
2019-04-01T03:53:04.879Z,38.33
2019-04-01T03:55:52.735Z,38.40
2019-04-01T03:58:40.510Z,34.77
2019-04-01T04:01:30.595Z,37.93
2019-04-01T04:04:17.790Z,35.23
2019-04-01T04:07:05.647Z,34.63
2019-04-01T04:09:53.425Z,36.17
2019-04-01T04:12:41.196Z,34.73
2019-04-01T04:15:28.961Z,35.33
2019-04-01T04:18:16.746Z,27.47
2019-04-01T04:21:04.529Z,41.97
2019-04-01T04:23:52.297Z,39.20
2019-04-01T04:26:32.593Z,35.90
2019-04-01T04:29:13.494Z,37.93
2019-04-01T04:31:54.373Z,34.50
2019-04-01T04:34:35.557Z,33.60
2019-04-01T04:37:16.048Z,34.13
2019-04-01T04:39:57.221Z,37.07
2019-04-01T04:42:38.285Z,37.53
2019-04-01T04:45:18.877Z,32.90
2019-04-01T04:47:59.912Z,33.73
2019-04-01T04:50:40.498Z,28.77
2019-04-01T04:53:21.317Z,28.17
2019-04-01T04:56:02.159Z,38.27
2019-04-01T04:58:30.583Z,29.07
2019-04-01T05:01:18.391Z,35.60
2019-04-01T05:04:06.159Z,33.50
2019-04-01T05:06:53.940Z,30.23
2019-04-01T05:09:41.727Z,37.67
2019-04-01T05:12:29.578Z,28.53
2019-04-01T05:15:17.340Z,31.13
2019-04-01T05:18:05.147Z,30.60
2019-04-01T05:20:53.539Z,35.40
2019-04-01T05:23:41.400Z,29.57
2019-04-01T05:26:49.896Z,28.63
2019-04-01T05:29:38.336Z,28.30
2019-04-01T05:32:26.119Z,30.13
2019-04-01T05:35:13.959Z,33.13
2019-04-01T05:38:01.727Z,28.23
2019-04-01T05:40:49.507Z,29.03
2019-04-01T05:43:17.964Z,25.10
2019-04-01T05:46:05.723Z,22.43
2019-04-01T05:48:53.511Z,20.80
2019-04-01T05:51:41.380Z,21.13
2019-04-01T05:54:29.226Z,20.80
2019-04-01T05:57:17.085Z,23.33
2019-04-01T06:00:25.587Z,26.10
2019-04-01T06:03:13.361Z,19.80
2019-04-01T06:06:01.121Z,27.03
2019-04-01T06:08:48.919Z,25.93
2019-04-01T06:11:17.351Z,25.20
2019-04-01T06:14:05.301Z,35.70
2019-04-01T06:16:53.077Z,26.77
2019-04-01T06:19:40.936Z,21.70
2019-04-01T06:22:28.723Z,24.70
2019-04-01T06:25:16.501Z,20.50
2019-04-01T06:27:58.249Z,23.30
2019-04-01T06:30:38.907Z,24.27
2019-04-01T06:33:20.062Z,34.97
2019-04-01T06:36:00.977Z,38.97
2019-04-01T06:38:29.418Z,16.93
2019-04-01T06:41:17.180Z,14.27
2019-04-01T06:44:05.031Z,17.43
2019-04-01T06:46:52.792Z,17.63
2019-04-01T06:49:40.632Z,9.40
2019-04-01T06:52:28.411Z,8.33
2019-04-01T06:55:16.188Z,19.57
2019-04-01T06:58:04.055Z,12.53
2019-04-01T07:00:51.820Z,21.67
2019-04-01T07:03:39.593Z,19.10
2019-04-01T07:06:27.393Z,15.50
2019-04-01T07:09:15.203Z,13.83
2019-04-01T07:12:02.979Z,10.73
2019-04-01T07:14:50.768Z,13.33
2019-04-01T07:17:38.540Z,12.47
2019-04-01T07:20:26.367Z,23.20
2019-04-01T07:23:14.323Z,16.50
2019-04-01T07:26:02.087Z,23.37
2019-04-01T07:28:49.872Z,13.73
2019-04-01T07:31:58.352Z,11.80
2019-04-01T07:34:46.155Z,11.23
2019-04-01T07:37:34.294Z,13.50
2019-04-01T07:40:22.077Z,16.50
2019-04-01T07:43:09.882Z,14.53
2019-04-01T07:46:00.026Z,11.33
2019-04-01T07:48:47.264Z,24.37
2019-04-01T07:51:38.343Z,18.63
2019-04-01T07:54:24.536Z,18.80
2019-04-01T07:57:12.405Z,15.13
2019-04-01T08:00:00.372Z,15.97
2019-04-01T08:02:49.105Z,17.40
2019-04-01T08:05:18.356Z,16.33
2019-04-01T08:07:46.779Z,16.07
2019-04-01T08:10:34.552Z,14.73
2019-04-01T08:13:43.133Z,19.57
2019-04-01T08:16:30.899Z,20.13
2019-04-01T08:19:18.680Z,20.27
2019-04-01T08:22:06.443Z,22.00
2019-04-01T08:24:54.234Z,17.33
2019-04-01T08:27:34.768Z,13.60
2019-04-01T08:30:15.436Z,22.57
2019-04-01T08:32:56.330Z,19.83
2019-04-01T08:35:37.120Z,13.57
2019-04-01T08:38:18.224Z,16.97
2019-04-01T08:40:59.347Z,19.27
2019-04-01T08:43:39.947Z,20.60
2019-04-01T08:46:20.711Z,18.17
2019-04-01T08:49:01.656Z,19.13
2019-04-01T08:51:42.593Z,20.93
2019-04-01T08:54:23.465Z,20.10
2019-04-01T08:57:04.338Z,30.30
2019-04-01T08:59:45.287Z,23.20
2019-04-01T09:02:26.397Z,28.20
2019-04-01T09:05:07.303Z,21.57
2019-04-01T09:07:47.832Z,32.63
2019-04-01T09:10:28.914Z,21.20
2019-04-01T09:13:09.894Z,18.90
2019-04-01T09:15:50.577Z,20.23
2019-04-01T09:18:31.307Z,21.30
2019-04-01T09:21:12.071Z,20.90
2019-04-01T09:23:53.038Z,22.40
2019-04-01T09:26:34.008Z,25.10
2019-04-01T09:29:14.781Z,22.63
2019-04-01T09:31:55.836Z,21.80
2019-04-01T09:34:36.951Z,19.60
2019-04-01T09:37:17.815Z,21.17
2019-04-01T09:39:58.716Z,26.97
2019-04-01T09:42:27.167Z,22.27
2019-04-01T09:45:15.205Z,23.27
2019-04-01T09:48:02.976Z,24.20
2019-04-01T09:50:50.768Z,25.90
2019-04-01T09:53:38.543Z,21.67
2019-04-01T09:56:26.334Z,22.00
2019-04-01T09:58:54.770Z,24.03
2019-04-01T10:01:42.555Z,23.93
2019-04-01T10:04:30.363Z,35.07
2019-04-01T10:07:18.138Z,28.83
2019-04-01T10:10:06.097Z,27.30
2019-04-01T10:12:53.898Z,30.30
2019-04-01T10:15:41.732Z,29.60
2019-04-01T10:18:29.520Z,23.13
2019-04-01T10:21:17.316Z,32.53
2019-04-01T10:24:05.079Z,24.83
2019-04-01T10:26:45.281Z,22.27
2019-04-01T10:29:26.032Z,24.90
2019-04-01T10:32:06.682Z,27.03
2019-04-01T10:34:47.504Z,25.90
2019-04-01T10:37:28.811Z,17.87
2019-04-01T10:40:09.565Z,33.17
2019-04-01T10:42:50.199Z,25.43
2019-04-01T10:45:31.027Z,26.70
2019-04-01T10:48:12.227Z,33.80
2019-04-01T10:50:53.048Z,25.60
2019-04-01T10:53:34.121Z,27.53
2019-04-01T10:56:15.217Z,26.50
2019-04-01T10:58:56.248Z,29.23
2019-04-01T11:01:37.453Z,26.00
2019-04-01T11:04:18.235Z,26.23
2019-04-01T11:06:58.942Z,30.77
2019-04-01T11:09:39.747Z,36.67
2019-04-01T11:12:08.175Z,27.77
2019-04-01T11:14:55.965Z,27.30
2019-04-01T11:17:44.081Z,26.30
2019-04-01T11:20:33.280Z,28.20
2019-04-01T11:23:21.158Z,26.20
2019-04-01T11:26:08.958Z,28.10
2019-04-01T11:28:49.791Z,26.63
2019-04-01T11:31:30.704Z,22.90
2019-04-01T11:34:11.675Z,31.00
2019-04-01T11:36:52.384Z,31.27
2019-04-01T11:39:33.325Z,24.20
2019-04-01T11:42:01.893Z,31.10
2019-04-01T11:44:49.830Z,25.30
2019-04-01T11:47:37.682Z,30.63
2019-04-01T11:50:25.713Z,27.10
2019-04-01T11:53:13.688Z,32.83
2019-04-01T11:56:01.515Z,29.80
2019-04-01T11:58:49.307Z,27.30
2019-04-01T12:01:37.108Z,28.90
2019-04-01T12:04:24.869Z,26.20
2019-04-01T12:07:12.830Z,29.23
2019-04-01T12:10:00.685Z,29.20
2019-04-01T12:12:29.116Z,27.03
2019-04-01T12:14:57.560Z,25.63
2019-04-01T12:17:26.016Z,26.23
2019-04-01T12:20:13.846Z,28.20
2019-04-01T12:23:01.662Z,25.53
2019-04-01T12:25:49.526Z,22.67
2019-04-01T12:28:30.157Z,30.03
2019-04-01T12:31:12.824Z,27.93
2019-04-01T12:33:53.088Z,23.17
2019-04-01T12:36:34.078Z,31.63
2019-04-01T12:39:14.848Z,33.43
2019-04-01T12:41:55.389Z,27.30
2019-04-01T12:44:36.293Z,29.57
2019-04-01T12:47:16.869Z,29.20
2019-04-01T12:49:57.725Z,28.10
2019-04-01T12:52:38.425Z,23.93
2019-04-01T12:55:19.024Z,28.83
2019-04-01T12:58:00.011Z,30.23
2019-04-01T13:00:40.976Z,33.33
2019-04-01T13:03:21.850Z,25.43
2019-04-01T13:12:02.508Z,28.70
2019-04-01T13:14:43.491Z,19.30
2019-04-01T13:17:24.187Z,26.53
2019-04-01T13:20:05.213Z,25.33
2019-04-01T13:22:45.905Z,28.03
2019-04-01T13:25:26.805Z,29.00
2019-04-01T13:28:07.622Z,20.47
2019-04-01T13:30:48.663Z,26.43
2019-04-01T13:33:29.697Z,24.50
2019-04-01T13:36:10.289Z,24.20
2019-04-01T13:38:38.715Z,28.63
2019-04-01T13:41:26.505Z,26.33
2019-04-01T13:44:14.273Z,22.40
2019-04-01T13:47:02.067Z,29.90
2019-04-01T13:49:49.844Z,24.67
2019-04-01T13:52:37.627Z,20.87
2019-04-01T13:55:25.415Z,20.73
2019-04-01T13:58:13.202Z,27.27
2019-04-01T14:01:00.971Z,24.90
2019-04-01T14:03:48.761Z,33.33
2019-04-01T14:06:36.565Z,19.90
2019-04-01T14:09:24.349Z,26.47
2019-04-01T14:12:12.267Z,24.13
2019-04-01T14:15:00.062Z,26.43
2019-04-01T14:17:47.846Z,20.13
2019-04-01T14:20:35.616Z,27.57
2019-04-01T14:23:23.562Z,19.33
2019-04-01T14:25:52.020Z,23.50
2019-04-01T14:28:32.757Z,22.13
2019-04-01T14:31:13.647Z,23.20
2019-04-01T14:33:54.635Z,21.40
2019-04-01T14:36:35.489Z,20.60
2019-04-01T14:39:16.247Z,23.10
2019-04-01T14:41:57.220Z,20.60
2019-04-01T14:44:37.702Z,19.77
2019-04-01T14:47:08.952Z,23.00
2019-04-01T14:49:55.648Z,19.87
2019-04-01T14:52:43.445Z,24.97
2019-04-01T14:55:31.369Z,19.13
2019-04-01T14:58:19.167Z,22.30
2019-04-01T15:01:06.940Z,20.17
2019-04-01T15:03:54.734Z,22.63
2019-04-01T15:06:42.543Z,22.90
2019-04-01T15:09:30.312Z,21.53
2019-04-01T15:12:18.112Z,24.17
2019-04-01T15:15:26.635Z,27.90
2019-04-01T15:17:55.138Z,25.23
2019-04-01T15:20:23.571Z,22.20
2019-04-01T15:23:11.374Z,23.37
2019-04-01T15:25:59.176Z,23.37
2019-04-01T15:28:27.628Z,25.40
2019-04-01T15:31:15.411Z,25.67
2019-04-01T15:34:03.196Z,31.27
2019-04-01T15:36:50.970Z,27.73
2019-04-01T15:39:38.772Z,33.73
2019-04-01T15:42:26.615Z,21.50
2019-04-01T15:45:14.467Z,22.73
2019-04-01T15:48:02.257Z,16.53
2019-04-01T15:50:50.059Z,21.87
2019-04-01T15:53:37.852Z,19.60
2019-04-01T15:56:25.619Z,22.83
2019-04-01T15:59:13.407Z,22.83
2019-04-01T16:02:01.256Z,22.20
2019-04-01T16:04:49.051Z,21.17
2019-04-01T16:07:36.840Z,23.43
2019-04-01T16:10:29.154Z,25.90
2019-04-01T16:13:15.698Z,24.17
2019-04-01T16:16:03.520Z,32.53
2019-04-01T16:18:51.332Z,25.40
2019-04-01T16:21:39.098Z,23.47
2019-04-01T16:24:26.912Z,27.43
2019-04-01T16:26:55.379Z,24.83
2019-04-01T16:29:35.903Z,33.07
2019-04-01T16:32:16.650Z,26.00
2019-04-01T16:34:57.311Z,28.33
2019-04-01T16:37:38.212Z,27.63
2019-04-01T16:40:19.541Z,31.83
2019-04-01T16:43:00.099Z,22.70
2019-04-01T16:45:40.706Z,28.07
2019-04-01T16:48:22.016Z,27.23
2019-04-01T16:51:03.229Z,35.77
2019-04-01T16:53:44.509Z,21.13
2019-04-01T16:56:25.694Z,23.57
2019-04-01T16:59:06.548Z,21.93
2019-04-01T17:01:47.252Z,25.30
2019-04-01T17:04:28.259Z,25.80
2019-04-01T17:07:08.983Z,23.57
2019-04-01T17:09:50.236Z,25.60
2019-04-01T17:12:30.812Z,29.00
2019-04-01T17:15:11.675Z,27.00
2019-04-01T17:17:52.410Z,25.43
2019-04-01T17:20:33.471Z,34.67
2019-04-01T17:23:14.255Z,22.00
2019-04-01T17:25:55.203Z,25.23
2019-04-01T17:28:23.658Z,22.57
2019-04-01T17:31:11.438Z,24.17
2019-04-01T17:33:59.209Z,25.90
2019-04-01T17:36:46.978Z,27.20
2019-04-01T17:39:34.849Z,27.13
2019-04-01T17:42:22.632Z,28.80
2019-04-01T17:45:31.205Z,31.97
2019-04-01T17:48:19.080Z,30.67
2019-04-01T17:50:47.512Z,27.03
2019-04-01T17:53:15.949Z,22.57
2019-04-01T17:56:03.752Z,25.30
2019-04-01T17:58:32.269Z,24.23
2019-04-01T18:01:20.042Z,20.27
2019-04-01T18:04:08.017Z,30.73
2019-04-01T18:06:36.443Z,24.60
2019-04-01T18:09:24.232Z,21.60
2019-04-01T18:12:12.016Z,24.20
2019-04-01T18:14:59.800Z,22.87
2019-04-01T18:17:47.567Z,23.37
2019-04-01T18:20:35.374Z,25.50
2019-04-01T18:23:23.165Z,31.63
2019-04-01T18:26:10.953Z,24.77
2019-04-01T18:28:40.287Z,27.83
2019-04-01T18:31:28.922Z,31.07
2019-04-01T18:34:16.703Z,29.17
2019-04-01T18:37:04.482Z,36.87
2019-04-01T18:39:52.261Z,25.50
2019-04-01T18:42:40.050Z,23.43
2019-04-01T18:45:48.572Z,23.63
2019-04-01T18:48:36.340Z,23.40
2019-04-01T18:51:24.187Z,28.17
2019-04-01T18:54:11.968Z,24.23
2019-04-01T18:56:59.741Z,23.20
2019-04-01T18:59:47.606Z,31.53
2019-04-01T19:02:35.363Z,28.13
2019-04-01T19:05:23.142Z,24.80
2019-04-01T19:08:10.991Z,25.70
2019-04-01T19:11:02.392Z,26.30
2019-04-01T19:13:48.264Z,25.63
2019-04-01T19:16:36.056Z,21.13
2019-04-01T19:19:23.832Z,24.57
2019-04-01T19:22:11.674Z,28.20
2019-04-01T19:24:59.460Z,25.97
2019-04-01T19:27:39.747Z,23.80
2019-04-01T19:30:20.911Z,31.97
2019-04-01T19:33:01.806Z,24.97
2019-04-01T19:35:42.811Z,22.93
2019-04-01T19:38:25.039Z,34.17
2019-04-01T19:41:05.527Z,35.47
2019-04-01T19:43:46.283Z,34.23
2019-04-01T19:46:27.491Z,28.93
2019-04-01T19:48:55.925Z,29.57
2019-04-01T19:51:43.720Z,33.67
2019-04-01T19:54:33.881Z,30.97
2019-04-01T19:57:21.011Z,25.83
2019-04-01T20:00:09.040Z,31.70
2019-04-01T20:02:56.890Z,35.47
2019-04-01T20:05:44.856Z,28.33
2019-04-01T20:08:32.615Z,26.80
2019-04-01T20:11:20.414Z,30.30
2019-04-01T20:14:08.200Z,37.83
2019-04-01T20:16:56.035Z,27.20
2019-04-01T20:19:43.807Z,32.67
2019-04-01T20:22:12.250Z,31.83
2019-04-01T20:25:00.035Z,28.07
2019-04-01T20:27:28.471Z,31.77
2019-04-01T20:30:16.521Z,29.30
2019-04-01T20:33:16.944Z,28.30
2019-04-01T20:35:53.787Z,29.80
2019-04-01T20:38:41.568Z,26.10
2019-04-01T20:41:29.348Z,28.33
2019-04-01T20:44:17.131Z,27.50
2019-04-01T20:47:04.911Z,30.37
2019-04-01T20:49:52.693Z,34.23
2019-04-01T20:52:40.545Z,24.93
2019-04-01T20:55:28.309Z,29.60
2019-04-01T20:58:16.083Z,25.80
2019-04-01T21:01:03.930Z,29.20
2019-04-01T21:03:51.695Z,28.10
2019-04-01T21:06:39.505Z,30.50
2019-04-01T21:09:27.355Z,25.97
2019-04-01T21:12:15.143Z,36.63
2019-04-01T21:15:03.089Z,29.00
2019-04-01T21:17:51.915Z,28.40
2019-04-01T21:20:42.071Z,33.33
2019-04-01T21:23:29.863Z,30.47
2019-04-01T21:26:17.687Z,28.23
2019-04-01T21:28:57.922Z,31.70
2019-04-01T21:31:38.623Z,30.30
2019-04-01T21:34:19.155Z,30.53
2019-04-01T21:37:00.019Z,28.33
2019-04-01T21:39:40.481Z,25.40
2019-04-01T21:42:29.742Z,33.33
2019-04-01T21:45:10.539Z,28.07
2019-04-01T21:47:51.364Z,29.23
2019-04-01T21:50:32.093Z,32.60
2019-04-01T21:53:13.004Z,38.00
2019-04-01T21:55:54.131Z,28.33
2019-04-01T21:58:35.470Z,27.83
2019-04-01T22:01:16.903Z,26.20
2019-04-01T22:03:58.000Z,28.27
2019-04-01T22:06:38.943Z,30.47
2019-04-01T22:09:19.947Z,29.27
2019-04-01T22:12:00.687Z,24.87
2019-04-01T22:14:40.969Z,30.50
2019-04-01T22:17:22.172Z,35.80
2019-04-01T22:20:03.251Z,31.33
2019-04-01T22:22:43.928Z,35.40
2019-04-01T22:25:24.565Z,26.43
2019-04-01T22:28:05.763Z,28.57
2019-04-01T22:30:46.497Z,28.53
2019-04-01T22:33:27.961Z,29.60
2019-04-01T22:36:08.799Z,27.10
2019-04-01T22:38:49.358Z,31.80
2019-04-01T22:41:30.324Z,27.80
2019-04-01T22:44:11.239Z,31.03
2019-04-01T22:46:52.328Z,25.10
2019-04-01T22:49:32.833Z,30.10
2019-04-01T22:52:13.711Z,28.60
2019-04-01T22:54:54.590Z,31.03
2019-04-01T22:57:35.547Z,28.63
2019-04-01T23:00:16.442Z,27.80
2019-04-01T23:02:56.751Z,36.93
2019-04-01T23:05:25.207Z,38.07
2019-04-01T23:08:12.981Z,28.57
2019-04-01T23:11:00.749Z,31.43
2019-04-01T23:13:48.793Z,28.17
2019-04-01T23:16:36.639Z,33.30
2019-04-01T23:19:24.425Z,32.33
2019-04-01T23:22:12.182Z,36.17
2019-04-01T23:24:59.972Z,29.20
2019-04-01T23:27:40.652Z,35.40
2019-04-01T23:30:21.258Z,27.77
2019-04-01T23:33:00.006Z,34.43
2019-04-01T23:35:47.784Z,36.03
2019-04-01T23:38:16.207Z,33.90
2019-04-01T23:41:04.119Z,26.00
2019-04-01T23:43:51.871Z,31.60
2019-04-01T23:46:39.655Z,37.00
2019-04-01T23:49:27.426Z,38.40
2019-04-01T23:52:15.211Z,36.60
2019-04-01T23:55:03.551Z,31.83
2019-04-01T23:57:51.332Z,38.10
